createdAt,value
2023-04-27T00:01:15.082Z,4.65
2023-04-27T00:03:42.823Z,4.85
2023-04-27T00:06:10.190Z,3.97
2023-04-27T00:08:37.976Z,4.80
2023-04-27T00:11:05.328Z,5.00
2023-04-27T00:13:32.440Z,5.57
2023-04-27T00:16:03.621Z,5.20
2023-04-27T00:18:32.260Z,4.53
2023-04-27T00:20:59.536Z,5.25
2023-04-27T00:23:27.018Z,4.25
2023-04-27T00:25:54.328Z,4.90
2023-04-27T00:28:21.740Z,4.82
2023-04-27T00:30:49.323Z,4.70
2023-04-27T00:33:17.605Z,4.50
2023-04-27T00:35:44.582Z,4.57
2023-04-27T00:38:12.333Z,5.22
2023-04-27T00:40:40.081Z,4.63
2023-04-27T00:43:08.817Z,4.20
2023-04-27T00:45:43.041Z,4.88
2023-04-27T00:48:13.775Z,4.57
2023-04-27T00:50:41.288Z,4.97
2023-04-27T00:53:09.265Z,5.07
2023-04-27T00:55:36.455Z,5.30
2023-04-27T00:58:08.348Z,4.18
2023-04-27T01:00:40.277Z,4.78
2023-04-27T01:03:08.130Z,4.00
2023-04-27T01:05:37.593Z,4.55
2023-04-27T01:08:05.479Z,5.47
2023-04-27T01:10:32.579Z,4.50
2023-04-27T01:13:00.139Z,4.05
2023-04-27T01:15:27.773Z,4.47
2023-04-27T01:17:59.428Z,4.80
2023-04-27T01:20:32.699Z,4.10
2023-04-27T01:23:00.205Z,4.90
2023-04-27T01:25:27.861Z,4.30
2023-04-27T01:27:55.192Z,4.32
2023-04-27T01:30:24.826Z,4.65
2023-04-27T01:32:52.219Z,4.50
2023-04-27T01:35:20.007Z,4.15
2023-04-27T01:37:47.118Z,5.40
2023-04-27T01:40:14.376Z,4.70
2023-04-27T01:42:41.452Z,4.43
2023-04-27T01:45:09.796Z,4.60
2023-04-27T01:47:37.988Z,4.60
2023-04-27T01:50:06.620Z,4.63
2023-04-27T01:52:33.761Z,4.45
2023-04-27T01:55:02.826Z,4.20
2023-04-27T01:57:30.510Z,4.05
2023-04-27T01:59:57.628Z,4.55
2023-04-27T02:02:24.976Z,4.53
2023-04-27T02:04:52.502Z,4.85
2023-04-27T02:07:20.136Z,4.55
2023-04-27T02:09:47.439Z,4.72
2023-04-27T02:12:14.797Z,4.25
2023-04-27T02:14:41.896Z,4.85
2023-04-27T02:17:08.991Z,4.28
2023-04-27T02:19:36.768Z,4.43
2023-04-27T02:22:05.793Z,4.90
2023-04-27T02:24:32.935Z,5.05
2023-04-27T02:27:01.295Z,4.82
2023-04-27T02:29:32.028Z,4.05
2023-04-27T02:31:59.698Z,4.28
2023-04-27T02:34:26.908Z,4.18
2023-04-27T02:36:54.245Z,3.78
2023-04-27T02:39:21.375Z,4.55
2023-04-27T02:41:48.532Z,4.13
2023-04-27T02:44:15.811Z,3.97
2023-04-27T02:46:46.086Z,3.65
2023-04-27T02:49:13.508Z,3.63
2023-04-27T02:51:40.992Z,3.45
2023-04-27T02:54:09.372Z,4.13
2023-04-27T02:56:36.489Z,3.90
2023-04-27T02:59:04.202Z,3.97
2023-04-27T03:01:31.544Z,3.78
2023-04-27T03:03:59.188Z,3.78
2023-04-27T03:06:26.366Z,3.90
2023-04-27T03:08:53.817Z,3.60
2023-04-27T03:11:21.195Z,3.78
2023-04-27T03:13:48.348Z,3.63
2023-04-27T03:16:15.476Z,3.38
2023-04-27T03:18:42.665Z,3.92
2023-04-27T03:21:13.606Z,3.65
2023-04-27T03:23:46.832Z,3.35
2023-04-27T03:26:15.237Z,4.20
2023-04-27T03:28:42.733Z,3.80
2023-04-27T03:31:16.060Z,4.43
2023-04-27T03:33:43.374Z,4.07
2023-04-27T03:36:13.214Z,4.10
2023-04-27T03:38:41.960Z,3.83
2023-04-27T03:41:09.103Z,3.92
2023-04-27T03:43:36.523Z,3.70
2023-04-27T03:46:03.740Z,4.07
2023-04-27T03:48:31.227Z,4.55
2023-04-27T03:50:58.354Z,4.15
2023-04-27T03:53:25.540Z,4.20
2023-04-27T03:55:52.817Z,3.60
2023-04-27T03:58:20.114Z,4.18
2023-04-27T04:01:06.541Z,4.05
2023-04-27T04:03:33.859Z,4.25
2023-04-27T04:06:01.481Z,4.35
2023-04-27T04:08:29.292Z,4.40
2023-04-27T04:11:01.059Z,4.43
2023-04-27T04:13:30.798Z,4.38
2023-04-27T04:16:09.486Z,4.40
2023-04-27T04:18:37.351Z,3.90
2023-04-27T04:21:06.547Z,4.85
2023-04-27T04:23:33.592Z,4.50
2023-04-27T04:26:02.407Z,4.80
2023-04-27T04:28:36.881Z,5.15
2023-04-27T04:31:06.666Z,5.10
2023-04-27T04:33:34.473Z,4.88
2023-04-27T04:36:05.341Z,4.90
2023-04-27T04:38:33.687Z,5.40
2023-04-27T04:41:02.508Z,4.93
2023-04-27T04:43:32.482Z,5.00
2023-04-27T04:46:02.478Z,4.65
2023-04-27T04:48:29.801Z,4.97
2023-04-27T04:50:57.417Z,5.57
2023-04-27T04:53:24.585Z,5.32
2023-04-27T04:55:51.763Z,5.53
2023-04-27T04:58:19.084Z,5.60
2023-04-27T05:00:46.239Z,4.95
2023-04-27T05:03:13.911Z,5.85
2023-04-27T05:05:41.138Z,6.38
2023-04-27T05:08:08.289Z,5.68
2023-04-27T05:10:35.367Z,5.13
2023-04-27T05:13:03.146Z,5.97
2023-04-27T05:15:31.573Z,5.93
2023-04-27T05:17:58.942Z,5.70
2023-04-27T05:20:29.406Z,5.78
2023-04-27T05:22:56.972Z,5.75
2023-04-27T05:25:24.073Z,5.80
2023-04-27T05:27:51.566Z,6.80
2023-04-27T05:30:24.725Z,6.10
2023-04-27T05:32:51.978Z,7.57
2023-04-27T05:35:19.093Z,6.82
2023-04-27T05:37:48.783Z,6.35
2023-04-27T05:40:15.919Z,7.35
2023-04-27T05:42:43.040Z,6.60
2023-04-27T05:45:10.977Z,6.05
2023-04-27T05:47:49.883Z,6.43
2023-04-27T05:50:22.098Z,6.53
2023-04-27T05:52:49.127Z,6.40
2023-04-27T05:55:19.243Z,6.95
2023-04-27T05:57:57.163Z,6.80
2023-04-27T06:00:43.104Z,8.20
2023-04-27T06:03:10.504Z,6.88
2023-04-27T06:05:38.206Z,7.72
2023-04-27T06:08:11.833Z,8.10
2023-04-27T06:13:11.923Z,6.25
2023-04-27T06:15:40.613Z,7.70
2023-04-27T06:18:08.045Z,7.72
2023-04-27T06:20:35.591Z,7.40
2023-04-27T06:23:07.962Z,6.45
2023-04-27T06:25:40.534Z,7.43
2023-04-27T06:28:07.765Z,8.05
2023-04-27T06:31:18.336Z,7.35
2023-04-27T06:33:48.503Z,9.45
2023-04-27T06:36:18.578Z,10.98
2023-04-27T06:38:45.939Z,9.00
2023-04-27T06:41:13.297Z,7.72
2023-04-27T06:43:40.529Z,7.90
2023-04-27T06:46:10.026Z,7.65
2023-04-27T06:51:27.044Z,8.20
2023-04-27T06:54:09.181Z,7.88
2023-04-27T06:56:39.563Z,9.48
2023-04-27T06:59:12.506Z,9.07
2023-04-27T07:01:44.541Z,9.02
2023-04-27T07:04:18.678Z,8.57
2023-04-27T07:06:48.923Z,7.63
2023-04-27T07:09:27.428Z,7.93
2023-04-27T07:11:55.607Z,7.55
2023-04-27T07:14:32.781Z,6.97
2023-04-27T07:17:02.339Z,7.10
2023-04-27T07:19:30.025Z,8.35
2023-04-27T07:22:02.740Z,4.28
2023-04-27T07:24:32.406Z,3.37
2023-04-27T07:27:06.158Z,2.13
2023-04-27T07:29:34.359Z,1.70
2023-04-27T07:32:02.327Z,1.20
2023-04-27T07:34:49.227Z,1.35
2023-04-27T07:37:29.184Z,1.80
2023-04-27T07:40:02.829Z,1.40
2023-04-27T07:42:34.675Z,1.40
2023-04-27T07:45:05.164Z,1.30
2023-04-27T07:47:42.846Z,1.70
2023-04-27T07:50:26.599Z,1.00
2023-04-27T07:55:32.916Z,1.13
2023-04-27T08:00:56.340Z,1.35
2023-04-27T08:03:24.215Z,1.85
2023-04-27T08:05:59.838Z,0.98
2023-04-27T08:08:30.359Z,0.90
2023-04-27T08:11:00.532Z,1.20
2023-04-27T08:13:27.818Z,1.40
2023-04-27T08:15:58.765Z,1.23
2023-04-27T08:18:27.405Z,1.42
2023-04-27T08:20:56.769Z,1.40
2023-04-27T08:23:28.613Z,1.83
2023-04-27T08:26:01.627Z,1.88
2023-04-27T08:28:33.613Z,1.60
2023-04-27T08:31:03.718Z,1.83
2023-04-27T08:33:30.815Z,1.48
2023-04-27T08:36:10.393Z,1.73
2023-04-27T08:38:40.010Z,1.70
2023-04-27T08:41:20.363Z,1.73
2023-04-27T08:43:55.647Z,1.20
2023-04-27T08:46:27.221Z,1.67
2023-04-27T08:48:55.125Z,1.85
2023-04-27T08:51:22.909Z,1.50
2023-04-27T08:53:53.145Z,1.70
2023-04-27T08:56:20.987Z,1.77
2023-04-27T08:58:49.981Z,2.08
2023-04-27T09:01:17.318Z,1.35
2023-04-27T09:03:50.196Z,1.55
2023-04-27T09:06:18.627Z,2.22
2023-04-27T09:08:48.016Z,1.25
2023-04-27T09:11:28.358Z,1.35
2023-04-27T09:13:55.975Z,1.60
2023-04-27T09:16:24.842Z,1.45
2023-04-27T09:18:53.295Z,1.05
2023-04-27T09:21:32.529Z,1.70
2023-04-27T09:24:12.485Z,0.85
2023-04-27T09:26:40.423Z,1.20
2023-04-27T09:29:08.571Z,1.08
2023-04-27T09:31:36.441Z,1.40
2023-04-27T09:34:04.207Z,1.35
2023-04-27T09:36:32.822Z,0.95
2023-04-27T09:39:04.916Z,1.27
2023-04-27T09:41:33.413Z,1.05
2023-04-27T09:44:02.268Z,1.23
2023-04-27T09:46:33.433Z,1.35
2023-04-27T09:49:04.629Z,1.70
2023-04-27T09:51:32.080Z,1.38
2023-04-27T09:54:05.863Z,1.02
2023-04-27T09:56:41.984Z,1.20
2023-04-27T09:59:50.775Z,1.10
2023-04-27T10:02:25.296Z,1.38
2023-04-27T10:05:02.981Z,1.50
2023-04-27T10:07:32.218Z,2.03
2023-04-27T10:10:03.321Z,1.50
2023-04-27T10:12:38.343Z,1.48
2023-04-27T10:15:16.919Z,1.80
2023-04-27T10:17:51.379Z,2.05
2023-04-27T10:20:29.916Z,1.50
2023-04-27T10:22:57.039Z,2.35
2023-04-27T10:25:32.074Z,1.60
2023-04-27T10:28:01.661Z,1.25
2023-04-27T10:30:34.698Z,1.10
2023-04-27T10:33:07.517Z,1.13
2023-04-27T10:35:40.756Z,1.60
2023-04-27T10:38:16.471Z,1.60
2023-04-27T10:41:01.767Z,1.17
2023-04-27T10:43:34.366Z,1.23
2023-04-27T10:46:16.155Z,1.25
2023-04-27T10:48:44.691Z,1.42
2023-04-27T10:51:17.851Z,1.50
2023-04-27T10:53:45.096Z,1.40
2023-04-27T10:56:13.420Z,1.45
2023-04-27T10:58:48.895Z,1.10
2023-04-27T11:01:27.471Z,1.00
2023-04-27T11:03:59.894Z,1.70
2023-04-27T11:06:28.682Z,1.40
2023-04-27T11:08:56.819Z,1.30
2023-04-27T11:11:24.494Z,1.10
2023-04-27T11:13:55.775Z,1.45
2023-04-27T11:16:24.971Z,1.30
2023-04-27T11:18:52.656Z,1.38
2023-04-27T11:21:22.245Z,1.63
2023-04-27T11:23:52.392Z,2.20
2023-04-27T11:26:26.458Z,1.65
2023-04-27T11:29:12.574Z,1.58
2023-04-27T11:31:47.566Z,1.65
2023-04-27T11:34:19.326Z,1.77
2023-04-27T11:37:07.099Z,1.42
2023-04-27T11:39:41.857Z,1.48
2023-04-27T11:42:25.056Z,1.80
2023-04-27T11:45:08.373Z,1.55
2023-04-27T11:47:36.225Z,1.10
2023-04-27T11:50:07.415Z,1.30
2023-04-27T11:52:35.738Z,1.30
2023-04-27T11:55:09.152Z,1.95
2023-04-27T11:57:37.012Z,1.73
2023-04-27T12:00:11.498Z,1.92
2023-04-27T12:02:42.997Z,1.40
2023-04-27T12:05:12.541Z,1.30
2023-04-27T12:07:40.406Z,0.98
2023-04-27T12:10:08.358Z,1.48
2023-04-27T12:12:36.250Z,1.58
2023-04-27T12:15:03.543Z,1.77
2023-04-27T12:17:30.746Z,1.38
2023-04-27T12:19:58.127Z,2.10
2023-04-27T12:22:25.292Z,1.45
2023-04-27T12:24:52.620Z,1.65
2023-04-27T12:27:19.876Z,1.73
2023-04-27T12:29:47.119Z,1.40
2023-04-27T12:32:14.507Z,1.20
2023-04-27T12:34:42.971Z,1.42
2023-04-27T12:37:10.001Z,1.42
2023-04-27T12:39:37.229Z,2.05
2023-04-27T12:42:04.352Z,0.98
2023-04-27T12:44:31.422Z,1.23
2023-04-27T12:46:58.521Z,1.90
2023-04-27T12:49:25.749Z,1.50
2023-04-27T12:51:54.453Z,1.15
2023-04-27T12:54:21.783Z,1.70
2023-04-27T12:56:49.030Z,1.40
2023-04-27T12:59:17.171Z,1.70
2023-04-27T13:01:46.002Z,1.48
2023-04-27T13:04:20.316Z,1.50
2023-04-27T13:06:48.316Z,1.42
2023-04-27T13:09:17.059Z,1.50
2023-04-27T13:11:44.355Z,1.15
2023-04-27T13:14:13.412Z,1.55
2023-04-27T13:16:42.537Z,1.60
2023-04-27T13:19:09.674Z,2.00
2023-04-27T13:21:37.016Z,1.70
2023-04-27T13:24:04.362Z,1.17
2023-04-27T13:26:33.897Z,1.95
2023-04-27T13:29:02.329Z,1.65
2023-04-27T13:31:33.163Z,1.25
2023-04-27T13:34:01.328Z,1.40
2023-04-27T13:36:29.593Z,1.70
2023-04-27T13:38:57.091Z,1.40
2023-04-27T13:41:24.326Z,1.67
2023-04-27T13:43:51.460Z,1.80
2023-04-27T13:46:18.724Z,1.60
2023-04-27T13:48:45.961Z,1.83
2023-04-27T13:51:13.256Z,1.95
2023-04-27T13:53:40.317Z,1.83
2023-04-27T13:56:07.390Z,1.63
2023-04-27T13:58:34.672Z,1.70
2023-04-27T14:01:02.084Z,1.48
2023-04-27T14:03:30.002Z,1.40
2023-04-27T14:05:57.350Z,1.70
2023-04-27T14:08:24.480Z,1.52
2023-04-27T14:10:51.569Z,1.63
2023-04-27T14:13:19.265Z,1.30
2023-04-27T14:15:49.510Z,1.70
2023-04-27T14:18:16.796Z,1.52
2023-04-27T14:20:44.917Z,1.83
2023-04-27T14:23:11.957Z,1.20
2023-04-27T14:25:39.370Z,1.50
2023-04-27T14:28:09.747Z,1.75
2023-04-27T14:30:38.644Z,1.30
2023-04-27T14:33:05.768Z,1.27
2023-04-27T14:35:35.965Z,1.50
2023-04-27T14:38:03.905Z,1.92
2023-04-27T14:40:31.887Z,1.42
2023-04-27T14:42:59.509Z,1.70
2023-04-27T14:45:33.526Z,1.38
2023-04-27T14:48:07.710Z,1.63
2023-04-27T14:50:34.977Z,1.35
2023-04-27T14:53:02.070Z,1.45
2023-04-27T14:55:32.164Z,1.40
2023-04-27T14:57:59.238Z,1.80
2023-04-27T15:00:26.412Z,1.40
2023-04-27T15:02:54.580Z,2.08
2023-04-27T15:05:21.778Z,1.23
2023-04-27T15:07:48.915Z,1.50
2023-04-27T15:10:16.146Z,1.65
2023-04-27T15:12:43.279Z,1.77
2023-04-27T15:15:10.697Z,2.00
2023-04-27T15:17:37.818Z,1.55
2023-04-27T15:20:06.034Z,1.00
2023-04-27T15:22:33.166Z,0.93
2023-04-27T15:25:00.272Z,1.00
2023-04-27T15:27:27.722Z,1.10
2023-04-27T15:29:55.149Z,1.13
2023-04-27T15:32:24.747Z,1.52
2023-04-27T15:34:52.041Z,1.20
2023-04-27T15:37:19.395Z,1.10
2023-04-27T15:39:46.743Z,1.70
2023-04-27T15:42:13.811Z,1.30
2023-04-27T15:44:40.843Z,1.17
2023-04-27T15:47:08.140Z,1.40
2023-04-27T15:49:49.872Z,1.30
2023-04-27T15:52:23.781Z,1.35
2023-04-27T15:54:51.113Z,1.15
2023-04-27T15:57:21.319Z,1.30
2023-04-27T15:59:48.577Z,1.20
2023-04-27T16:02:16.104Z,1.10
2023-04-27T16:04:43.410Z,1.40
2023-04-27T16:07:10.549Z,1.20
2023-04-27T16:09:37.804Z,1.00
2023-04-27T16:12:05.443Z,1.27
2023-04-27T16:14:32.722Z,1.77
2023-04-27T16:17:02.675Z,1.20
2023-04-27T16:19:30.313Z,1.48
2023-04-27T16:21:57.391Z,1.33
2023-04-27T16:24:25.699Z,1.40
2023-04-27T16:26:52.895Z,1.67
2023-04-27T16:29:20.043Z,1.13
2023-04-27T16:31:50.288Z,1.50
2023-04-27T16:34:17.372Z,1.25
2023-04-27T16:36:44.700Z,1.50
2023-04-27T16:39:11.964Z,1.90
2023-04-27T16:41:39.183Z,1.20
2023-04-27T16:44:07.242Z,1.80
2023-04-27T16:46:34.374Z,1.63
2023-04-27T16:49:03.833Z,1.45
2023-04-27T16:51:31.264Z,1.63
2023-04-27T16:53:58.584Z,2.13
2023-04-27T16:56:27.637Z,2.05
2023-04-27T16:58:55.017Z,1.45
2023-04-27T17:01:24.374Z,1.77
2023-04-27T17:03:51.780Z,2.22
2023-04-27T17:06:19.147Z,2.10
2023-04-27T17:08:46.316Z,2.05
2023-04-27T17:11:20.024Z,2.53
2023-04-27T17:13:49.679Z,1.83
2023-04-27T17:16:18.288Z,2.47
2023-04-27T17:18:49.716Z,2.22
2023-04-27T17:21:17.499Z,2.55
2023-04-27T17:23:47.635Z,2.78
2023-04-27T17:26:19.986Z,2.78
2023-04-27T17:28:47.858Z,3.35
2023-04-27T17:31:15.783Z,3.10
2023-04-27T17:33:43.840Z,3.03
2023-04-27T17:36:11.631Z,2.92
2023-04-27T17:38:38.750Z,3.15
2023-04-27T17:41:06.866Z,3.00
2023-04-27T17:43:34.176Z,3.65
2023-04-27T17:46:01.171Z,3.13
2023-04-27T17:48:28.326Z,2.97
2023-04-27T17:50:55.435Z,3.30
2023-04-27T17:53:22.580Z,3.60
2023-04-27T17:55:49.620Z,3.30
2023-04-27T17:58:19.623Z,4.07
2023-04-27T18:00:46.733Z,3.03
2023-04-27T18:03:14.041Z,4.00
2023-04-27T18:05:41.677Z,3.78
2023-04-27T18:08:08.698Z,4.55
2023-04-27T18:10:36.390Z,3.92
2023-04-27T18:13:03.681Z,4.30
2023-04-27T18:15:30.880Z,4.10
2023-04-27T18:17:58.069Z,3.83
2023-04-27T18:20:27.324Z,3.63
2023-04-27T18:22:54.965Z,3.70
2023-04-27T18:25:22.041Z,3.60
2023-04-27T18:27:55.358Z,4.03
2023-04-27T18:30:25.718Z,4.45
2023-04-27T18:32:52.885Z,4.35
2023-04-27T18:35:20.243Z,5.28
2023-04-27T18:37:48.505Z,3.95
2023-04-27T18:40:21.267Z,4.32
2023-04-27T18:42:49.031Z,5.68
2023-04-27T18:45:16.360Z,3.67
2023-04-27T18:47:46.221Z,3.75
2023-04-27T18:50:14.015Z,5.07
2023-04-27T18:52:43.335Z,3.53
2023-04-27T18:55:17.549Z,3.85
2023-04-27T18:57:45.226Z,3.42
2023-04-27T19:00:13.198Z,4.03
2023-04-27T19:02:40.843Z,4.15
2023-04-27T19:05:12.821Z,4.00
2023-04-27T19:07:41.079Z,3.93
2023-04-27T19:10:09.855Z,4.25
2023-04-27T19:12:37.103Z,3.58
2023-04-27T19:15:04.936Z,3.70
2023-04-27T19:17:32.296Z,3.88
2023-04-27T19:20:04.800Z,4.10
2023-04-27T19:22:34.447Z,4.57
2023-04-27T19:25:01.730Z,4.45
2023-04-27T19:27:29.232Z,4.18
2023-04-27T19:29:58.558Z,4.40
2023-04-27T19:32:27.685Z,4.85
2023-04-27T19:34:56.443Z,5.03
2023-04-27T19:37:27.376Z,5.20
2023-04-27T19:39:54.695Z,5.07
2023-04-27T19:42:24.992Z,5.85
2023-04-27T19:44:52.252Z,5.43
2023-04-27T19:47:19.427Z,5.15
2023-04-27T19:49:46.748Z,5.63
2023-04-27T19:52:17.087Z,5.82
2023-04-27T19:54:46.514Z,5.35
2023-04-27T19:57:13.503Z,5.85
2023-04-27T19:59:42.334Z,5.50
2023-04-27T20:02:12.641Z,4.00
2023-04-27T20:04:41.707Z,5.10
2023-04-27T20:07:12.822Z,5.50
2023-04-27T20:09:40.519Z,4.88
2023-04-27T20:12:37.218Z,5.15
2023-04-27T20:15:09.670Z,6.32
2023-04-27T20:17:37.219Z,6.45
2023-04-27T20:20:10.783Z,6.43
2023-04-27T20:22:39.568Z,6.97
2023-04-27T20:25:09.212Z,5.28
2023-04-27T20:27:37.293Z,6.68
2023-04-27T20:30:06.104Z,7.28
2023-04-27T20:32:33.510Z,6.65
2023-04-27T20:35:02.706Z,6.40
2023-04-27T20:37:30.550Z,7.20
2023-04-27T20:39:58.085Z,7.80
2023-04-27T20:42:25.581Z,7.32
2023-04-27T20:44:55.041Z,6.80
2023-04-27T20:47:22.674Z,9.00
2023-04-27T20:49:50.986Z,6.78
2023-04-27T20:52:18.232Z,6.88
2023-04-27T20:54:49.914Z,8.05
2023-04-27T20:57:17.099Z,8.13
2023-04-27T20:59:45.775Z,7.15
2023-04-27T21:02:15.367Z,7.70
2023-04-27T21:04:43.975Z,6.80
2023-04-27T21:07:11.872Z,6.78
2023-04-27T21:09:39.280Z,7.43
2023-04-27T21:12:10.632Z,7.15
2023-04-27T21:14:41.915Z,7.65
2023-04-27T21:17:11.224Z,7.57
2023-04-27T21:19:43.793Z,8.60
2023-04-27T21:22:12.025Z,7.95
2023-04-27T21:24:45.202Z,8.43
2023-04-27T21:27:13.013Z,8.18
2023-04-27T21:29:40.964Z,8.43
2023-04-27T21:32:10.098Z,9.10
2023-04-27T21:34:37.415Z,8.60
2023-04-27T21:37:05.993Z,9.20
2023-04-27T21:39:33.491Z,9.80
2023-04-27T21:42:01.053Z,10.00
2023-04-27T21:44:28.804Z,9.15
2023-04-27T21:46:57.055Z,8.55
2023-04-27T21:49:24.670Z,8.25
2023-04-27T21:51:52.877Z,8.13
2023-04-27T21:54:20.479Z,8.23
2023-04-27T21:56:48.441Z,8.35
2023-04-27T21:59:16.840Z,8.05
2023-04-27T22:01:45.435Z,7.50
2023-04-27T22:04:13.178Z,8.68
2023-04-27T22:06:43.089Z,7.97
2023-04-27T22:09:12.639Z,9.07
2023-04-27T22:11:40.539Z,8.57
2023-04-27T22:14:08.680Z,8.82
2023-04-27T22:16:36.878Z,9.23
2023-04-27T22:19:04.421Z,9.85
2023-04-27T22:21:31.980Z,10.50
2023-04-27T22:23:59.648Z,10.32
2023-04-27T22:26:27.253Z,12.02
2023-04-27T22:28:54.653Z,10.85
2023-04-27T22:31:22.813Z,11.43
2023-04-27T22:33:56.122Z,12.00
2023-04-27T22:36:24.607Z,12.27
2023-04-27T22:38:52.740Z,14.23
2023-04-27T22:41:21.398Z,11.43
2023-04-27T22:43:49.988Z,10.77
2023-04-27T22:46:17.788Z,10.73
2023-04-27T22:48:45.379Z,11.02
2023-04-27T22:51:12.943Z,10.30
2023-04-27T22:53:43.514Z,10.15
2023-04-27T22:56:10.988Z,9.20
2023-04-27T22:58:38.322Z,9.50
2023-04-27T23:01:06.025Z,7.95
2023-04-27T23:03:33.664Z,6.88
2023-04-27T23:06:01.107Z,7.00
2023-04-27T23:08:29.269Z,6.13
2023-04-27T23:10:57.137Z,6.57
2023-04-27T23:13:27.886Z,6.20
2023-04-27T23:15:56.110Z,6.45
2023-04-27T23:18:23.807Z,8.00
2023-04-27T23:20:55.363Z,8.90
2023-04-27T23:23:23.313Z,9.90
2023-04-27T23:25:51.408Z,9.75
2023-04-27T23:28:19.529Z,9.15
2023-04-27T23:30:55.881Z,6.50
2023-04-27T23:33:24.730Z,7.05
2023-04-27T23:35:54.052Z,7.15
2023-04-27T23:38:23.438Z,7.18
2023-04-27T23:40:51.310Z,7.43
2023-04-27T23:43:21.426Z,7.10
2023-04-27T23:45:51.261Z,7.85
2023-04-27T23:48:20.141Z,7.10
2023-04-27T23:50:48.094Z,7.10
2023-04-27T23:53:15.903Z,7.78
2023-04-27T23:55:43.616Z,7.35
2023-04-27T23:58:11.507Z,7.38
